createdAt,value
2019-03-21T13:13:23.921Z,10.20
2019-03-21T13:15:56.396Z,10.20
2019-03-21T13:18:33.785Z,10.30
2019-03-21T13:21:06.600Z,10.40
2019-03-21T13:23:37.836Z,10.60
2019-03-21T13:26:08.585Z,10.70
2019-03-21T13:28:43.550Z,10.70
2019-03-21T13:31:17.226Z,10.70
2019-03-21T13:33:52.111Z,10.80
2019-03-21T13:36:25.740Z,10.90
2019-03-21T13:38:58.472Z,10.80
2019-03-21T13:41:30.252Z,10.80
2019-03-21T13:44:01.126Z,10.80
2019-03-21T13:46:33.589Z,10.70
2019-03-21T13:49:06.237Z,10.60
2019-03-21T13:51:39.316Z,10.60
2019-03-21T13:54:09.976Z,10.50
2019-03-21T13:56:42.676Z,10.50
2019-03-21T13:59:14.317Z,10.50
2019-03-21T14:01:48.043Z,10.50
2019-03-21T14:04:20.984Z,10.70
2019-03-21T14:06:53.225Z,10.70
2019-03-21T14:09:25.069Z,10.70
2019-03-21T14:11:54.400Z,10.70
2019-03-21T14:14:25.608Z,10.80
2019-03-21T14:16:59.224Z,10.90
2019-03-21T14:19:30.905Z,11.00
2019-03-21T14:22:05.009Z,11.00
2019-03-21T14:24:40.433Z,11.10
2019-03-21T14:27:11.901Z,11.10
2019-03-21T14:29:43.769Z,11.10
2019-03-21T14:32:15.913Z,11.10
2019-03-21T14:34:48.720Z,11.20
2019-03-21T14:37:21.088Z,11.20
2019-03-21T14:39:52.237Z,11.10
2019-03-21T14:42:21.463Z,11.20
2019-03-21T14:44:52.736Z,11.20
2019-03-21T14:47:35.632Z,11.20
2019-03-21T14:49:57.461Z,11.20
2019-03-21T14:52:33.929Z,11.10
2019-03-21T14:55:06.757Z,11.20
2019-03-21T14:57:39.459Z,11.10
2019-03-21T15:00:21.852Z,11.20
2019-03-21T15:02:56.045Z,11.20
2019-03-21T15:05:31.536Z,11.40
2019-03-21T15:08:02.868Z,11.40
2019-03-21T15:10:33.705Z,11.30
2019-03-21T15:13:08.721Z,11.30
2019-03-21T15:15:40.441Z,11.30
2019-03-21T15:18:12.169Z,11.20
2019-03-21T15:20:42.620Z,11.20
2019-03-21T15:23:12.458Z,11.20
2019-03-21T15:25:43.320Z,11.20
2019-03-21T15:28:15.624Z,11.30
2019-03-21T15:30:45.897Z,11.30
2019-03-21T15:33:16.084Z,11.30
2019-03-21T15:35:50.617Z,11.30
2019-03-21T15:38:23.441Z,11.20
2019-03-21T15:40:55.256Z,11.20
2019-03-21T15:43:26.573Z,11.30
2019-03-21T15:45:58.505Z,11.30
2019-03-21T15:48:32.793Z,11.30
2019-03-21T15:51:05.177Z,11.30
2019-03-21T15:53:34.504Z,11.30
2019-03-21T15:56:05.739Z,11.30
2019-03-21T15:58:39.545Z,11.20
2019-03-21T16:01:11.092Z,11.10
2019-03-21T16:03:41.416Z,11.10
2019-03-21T16:06:14.153Z,11.10
2019-03-21T16:08:48.305Z,11.10
2019-03-21T16:11:19.828Z,11.00
2019-03-21T16:13:51.946Z,11.00
2019-03-21T16:16:25.615Z,11.10
2019-03-21T16:18:57.302Z,11.10
2019-03-21T16:21:31.757Z,11.00
2019-03-21T16:24:05.435Z,10.90
2019-03-21T16:26:37.810Z,10.90
2019-03-21T16:29:10.524Z,10.80
2019-03-21T16:31:43.411Z,10.80
2019-03-21T16:34:13.878Z,10.80
2019-03-21T16:36:47.453Z,10.70
2019-03-21T16:39:22.123Z,10.70
2019-03-21T16:41:53.835Z,10.70
2019-03-21T16:44:23.916Z,10.50
2019-03-21T16:46:54.493Z,10.50
2019-03-21T16:49:26.348Z,10.40
2019-03-21T16:51:58.638Z,10.30
2019-03-21T16:54:30.442Z,10.30
2019-03-21T16:57:03.324Z,10.30
2019-03-21T16:59:37.867Z,10.20
2019-03-21T17:02:10.762Z,10.30
2019-03-21T17:04:43.819Z,10.20
2019-03-21T17:07:14.813Z,10.10
2019-03-21T17:09:45.072Z,10.10
2019-03-21T17:12:14.934Z,10.10
2019-03-21T17:14:46.400Z,10.20
2019-03-21T17:17:17.338Z,10.20
2019-03-21T17:19:48.942Z,10.10
2019-03-21T17:22:23.084Z,9.80
2019-03-21T17:24:56.745Z,9.50
2019-03-21T17:27:28.597Z,9.30
2019-03-21T17:29:58.612Z,9.10
2019-03-21T17:32:29.703Z,9.00
2019-03-21T17:35:02.445Z,8.80
2019-03-21T17:37:38.427Z,8.70
2019-03-21T17:40:11.204Z,8.70
2019-03-21T17:42:43.422Z,8.70
2019-03-21T17:45:15.541Z,8.60
2019-03-21T17:47:45.635Z,8.50
2019-03-21T17:50:20.538Z,8.50
2019-03-21T17:52:51.950Z,8.40
2019-03-21T17:55:26.069Z,8.40
2019-03-21T17:57:57.374Z,8.30
2019-03-21T18:00:29.593Z,8.20
2019-03-21T18:02:59.973Z,8.20
2019-03-21T18:05:31.552Z,8.00
2019-03-21T18:08:10.511Z,8.10
2019-03-21T18:10:43.139Z,8.00
2019-03-21T18:13:16.008Z,7.90
2019-03-21T18:15:48.964Z,7.60
2019-03-21T18:18:24.296Z,7.30
2019-03-21T18:20:57.989Z,7.20
2019-03-21T18:23:35.554Z,7.10
2019-03-21T18:26:09.646Z,7.20
2019-03-21T18:28:41.482Z,7.10
2019-03-21T18:31:14.956Z,7.10
2019-03-21T18:33:45.685Z,7.10
2019-03-21T18:36:18.372Z,7.00
2019-03-21T18:38:58.645Z,7.00
2019-03-21T18:41:22.156Z,7.00
2019-03-21T18:43:54.413Z,7.10
2019-03-21T18:46:23.734Z,7.10
2019-03-21T18:48:55.544Z,7.20
2019-03-21T18:51:29.371Z,7.20
2019-03-21T18:54:00.644Z,7.20
2019-03-21T18:56:34.271Z,7.30
2019-03-21T18:59:05.488Z,7.30
2019-03-21T19:01:36.972Z,7.30
2019-03-21T19:04:07.501Z,7.20
2019-03-21T19:06:41.227Z,7.10
2019-03-21T19:09:15.285Z,7.10
2019-03-21T19:11:46.618Z,7.10
2019-03-21T19:14:20.985Z,7.00
2019-03-21T19:16:57.684Z,7.00
2019-03-21T19:19:30.412Z,6.90
2019-03-21T19:22:03.210Z,6.90
2019-03-21T19:24:35.561Z,6.80
2019-03-21T19:27:10.250Z,6.90
2019-03-21T19:29:41.752Z,6.90
2019-03-21T19:32:13.493Z,6.80
2019-03-21T19:34:45.825Z,6.70
2019-03-21T19:37:16.109Z,6.70
2019-03-21T19:39:48.714Z,6.60
2019-03-21T19:42:19.588Z,6.50
2019-03-21T19:44:54.409Z,6.30
2019-03-21T19:47:30.525Z,6.10
2019-03-21T19:50:03.536Z,6.00
2019-03-21T19:52:35.681Z,5.80
2019-03-21T19:55:06.813Z,5.90
2019-03-21T19:57:37.161Z,5.80
2019-03-21T20:00:09.173Z,5.60
2019-03-21T20:02:43.000Z,5.50
2019-03-21T20:05:16.159Z,5.50
2019-03-21T20:07:49.979Z,5.40
2019-03-21T20:10:23.014Z,5.30
2019-03-21T20:12:52.936Z,5.20
2019-03-21T20:15:23.052Z,5.20
2019-03-21T20:17:55.989Z,5.20
2019-03-21T20:20:30.896Z,5.20
2019-03-21T20:23:00.351Z,5.20
2019-03-21T20:25:42.353Z,5.10
2019-03-21T20:28:06.617Z,5.30
2019-03-21T20:30:38.993Z,5.20
2019-03-21T20:33:10.653Z,5.10
2019-03-21T20:35:42.552Z,5.00
2019-03-21T20:38:12.154Z,5.00
2019-03-21T20:40:43.358Z,5.00
2019-03-21T20:43:18.118Z,5.10
2019-03-21T20:45:50.164Z,5.10
2019-03-21T20:48:29.554Z,5.00
2019-03-21T20:51:04.197Z,4.90
2019-03-21T20:53:35.096Z,4.90
2019-03-21T20:56:06.229Z,4.90
2019-03-21T20:58:38.792Z,4.70
2019-03-21T21:01:10.967Z,4.70
2019-03-21T21:03:43.135Z,4.70
2019-03-21T21:06:15.884Z,4.70
2019-03-21T21:08:46.506Z,4.70
2019-03-21T21:11:19.816Z,4.70
2019-03-21T21:13:52.069Z,4.70
2019-03-21T21:16:28.036Z,4.80
2019-03-21T21:19:01.909Z,4.90
2019-03-21T21:21:34.213Z,5.00
2019-03-21T21:24:07.052Z,5.00
2019-03-21T21:26:40.113Z,5.00
2019-03-21T21:29:12.198Z,5.00
2019-03-21T21:31:47.008Z,5.00
2019-03-21T21:34:19.620Z,4.90
2019-03-21T21:36:51.417Z,5.10
2019-03-21T21:39:22.985Z,5.00
2019-03-21T21:41:55.945Z,5.00
2019-03-21T21:44:26.321Z,5.10
2019-03-21T21:46:56.180Z,4.90
2019-03-21T21:49:26.374Z,5.00
2019-03-21T21:51:55.980Z,4.90
2019-03-21T21:54:27.756Z,5.00
2019-03-21T21:57:00.589Z,5.00
2019-03-21T21:59:33.033Z,5.00
2019-03-21T22:02:05.096Z,4.90
2019-03-21T22:04:37.993Z,4.90
2019-03-21T22:07:09.005Z,4.90
2019-03-21T22:09:40.728Z,4.80
2019-03-21T22:12:11.319Z,4.70
2019-03-21T22:14:41.061Z,4.70
2019-03-21T22:17:14.828Z,4.70
2019-03-21T22:19:49.116Z,4.60
2019-03-21T22:22:20.855Z,4.60
2019-03-21T22:24:54.263Z,4.60
2019-03-21T22:27:24.118Z,4.60
2019-03-21T22:29:57.611Z,4.50
2019-03-21T22:32:30.805Z,4.50
2019-03-21T22:35:03.261Z,4.50
2019-03-21T22:37:34.905Z,4.50
2019-03-21T22:40:07.258Z,4.50
2019-03-21T22:42:41.259Z,4.50
2019-03-21T22:45:14.000Z,4.50
2019-03-21T22:47:45.555Z,4.50
2019-03-21T22:50:16.868Z,4.50
2019-03-21T22:52:50.898Z,4.50
2019-03-21T22:55:23.976Z,4.50
2019-03-21T22:57:57.544Z,4.40
2019-03-21T23:00:36.038Z,4.40
2019-03-21T23:03:07.641Z,4.40
2019-03-21T23:05:38.245Z,4.30
2019-03-21T23:08:11.048Z,4.30
2019-03-21T23:10:46.200Z,4.30
2019-03-21T23:13:16.370Z,4.20
2019-03-21T23:15:48.056Z,4.20
2019-03-21T23:18:18.972Z,4.10
2019-03-21T23:20:50.991Z,4.00
2019-03-21T23:23:25.614Z,4.00
2019-03-21T23:25:56.824Z,4.00
2019-03-21T23:28:29.143Z,3.90
2019-03-21T23:30:58.986Z,3.90
2019-03-21T23:33:30.952Z,3.90
2019-03-21T23:36:04.934Z,3.80
2019-03-21T23:38:40.044Z,3.80
2019-03-21T23:41:12.772Z,3.80
2019-03-21T23:43:43.087Z,3.80
2019-03-21T23:46:15.928Z,3.80
2019-03-21T23:48:46.995Z,3.70
2019-03-21T23:51:18.877Z,3.60
2019-03-21T23:53:50.880Z,3.60
2019-03-21T23:56:22.200Z,3.60
2019-03-21T23:58:52.822Z,3.60
